aviador You're here:

OPSK Decoded Metar

SUKKUR in PAKISTAN
Report Time2018-05-23 15:59:00
UTC Time2018-05-23 16:36:48
Flight Rules ifr IFR
WindCalm
Visibility4000 m
Phenomena:Haze
Clouds:N/A
Expected CloudBase > 6,800 ft AGL from Temp-Dew spread
CeilingNone
Temp34°C (ISA +19)
Dew Point17°C (36% RH)
Heat Index34.5°C
QNH1001 hPa
Density Alt3,054 ft
Elevation190 ft
Report Wrong Elevation
Raw Report
METAR OPSK 231559Z 00000KT 4000 HZ NSC 34/17 Q1001 NOSIG=

Extra information for OPSK:More info

Metar Taf Metar & Taf Last 4 Metars F.Rules Stats Wind Profile Meteogram Temp Stats Airport Information Weather charts Add Link Nearby VenuesMetar ALERT Operation Metar Decoded Social comments